sensor_id;sensor_type;location;lat;lon;timestamp;P1;durP1;ratioP1;P2;durP2;ratioP2
5608;SDS011;2826;51.354;9.588;2022-07-23T00:01:10;16.40;;;9.90;;
5608;SDS011;2826;51.354;9.588;2022-07-23T00:03:37;13.63;;;8.47;;
5608;SDS011;2826;51.354;9.588;2022-07-23T00:06:04;13.97;;;9.67;;
5608;SDS011;2826;51.354;9.588;2022-07-23T00:08:31;12.20;;;8.93;;
5608;SDS011;2826;51.354;9.588;2022-07-23T00:10:58;20.83;;;9.43;;
5608;SDS011;2826;51.354;9.588;2022-07-23T00:13:25;14.57;;;9.90;;
5608;SDS011;2826;51.354;9.588;2022-07-23T00:15:52;13.53;;;9.30;;
5608;SDS011;2826;51.354;9.588;2022-07-23T00:18:21;12.50;;;8.33;;
5608;SDS011;2826;51.354;9.588;2022-07-23T00:20:48;9.67;;;8.20;;
5608;SDS011;2826;51.354;9.588;2022-07-23T00:23:15;20.03;;;9.63;;
5608;SDS011;2826;51.354;9.588;2022-07-23T00:25:43;15.00;;;9.13;;
5608;SDS011;2826;51.354;9.588;2022-07-23T00:28:10;17.30;;;9.30;;
5608;SDS011;2826;51.354;9.588;2022-07-23T00:30:38;14.67;;;9.63;;
5608;SDS011;2826;51.354;9.588;2022-07-23T00:33:05;16.53;;;9.60;;
5608;SDS011;2826;51.354;9.588;2022-07-23T00:35:35;15.53;;;9.70;;
5608;SDS011;2826;51.354;9.588;2022-07-23T00:38:06;15.23;;;9.30;;
5608;SDS011;2826;51.354;9.588;2022-07-23T00:40:35;14.53;;;9.13;;
5608;SDS011;2826;51.354;9.588;2022-07-23T00:43:03;21.37;;;10.17;;
5608;SDS011;2826;51.354;9.588;2022-07-23T00:45:30;14.90;;;10.23;;
5608;SDS011;2826;51.354;9.588;2022-07-23T00:47:58;13.17;;;9.60;;
5608;SDS011;2826;51.354;9.588;2022-07-23T00:50:25;13.73;;;8.90;;
5608;SDS011;2826;51.354;9.588;2022-07-23T00:52:53;15.73;;;9.73;;
5608;SDS011;2826;51.354;9.588;2022-07-23T00:55:20;16.27;;;10.07;;
5608;SDS011;2826;51.354;9.588;2022-07-23T00:57:47;21.37;;;10.70;;
5608;SDS011;2826;51.354;9.588;2022-07-23T01:00:15;12.80;;;9.50;;
5608;SDS011;2826;51.354;9.588;2022-07-23T01:02:42;14.50;;;10.07;;
5608;SDS011;2826;51.354;9.588;2022-07-23T01:05:09;17.30;;;10.60;;
5608;SDS011;2826;51.354;9.588;2022-07-23T01:07:36;17.73;;;10.20;;
5608;SDS011;2826;51.354;9.588;2022-07-23T01:10:05;14.70;;;10.30;;
5608;SDS011;2826;51.354;9.588;2022-07-23T01:12:54;15.60;;;9.97;;
5608;SDS011;2826;51.354;9.588;2022-07-23T01:15:21;18.80;;;10.70;;
5608;SDS011;2826;51.354;9.588;2022-07-23T01:17:48;16.50;;;10.33;;
5608;SDS011;2826;51.354;9.588;2022-07-23T01:20:15;16.07;;;10.83;;
5608;SDS011;2826;51.354;9.588;2022-07-23T01:22:44;15.40;;;11.13;;
5608;SDS011;2826;51.354;9.588;2022-07-23T01:25:12;16.83;;;10.13;;
5608;SDS011;2826;51.354;9.588;2022-07-23T01:27:47;19.30;;;11.00;;
5608;SDS011;2826;51.354;9.588;2022-07-23T01:30:14;17.67;;;11.10;;
5608;SDS011;2826;51.354;9.588;2022-07-23T01:32:42;22.07;;;10.73;;
5608;SDS011;2826;51.354;9.588;2022-07-23T01:35:08;18.27;;;11.57;;
5608;SDS011;2826;51.354;9.588;2022-07-23T01:37:36;18.17;;;11.93;;
5608;SDS011;2826;51.354;9.588;2022-07-23T01:40:06;17.90;;;10.40;;
5608;SDS011;2826;51.354;9.588;2022-07-23T01:42:34;19.63;;;12.07;;
5608;SDS011;2826;51.354;9.588;2022-07-23T01:45:03;17.40;;;12.23;;
5608;SDS011;2826;51.354;9.588;2022-07-23T01:47:31;20.30;;;11.83;;
5608;SDS011;2826;51.354;9.588;2022-07-23T01:49:58;17.80;;;11.43;;
5608;SDS011;2826;51.354;9.588;2022-07-23T01:52:41;21.00;;;12.27;;
5608;SDS011;2826;51.354;9.588;2022-07-23T01:55:09;18.40;;;11.80;;
5608;SDS011;2826;51.354;9.588;2022-07-23T01:57:43;21.90;;;13.40;;
5608;SDS011;2826;51.354;9.588;2022-07-23T02:00:12;22.57;;;12.70;;
5608;SDS011;2826;51.354;9.588;2022-07-23T02:02:41;18.50;;;12.17;;
5608;SDS011;2826;51.354;9.588;2022-07-23T02:05:08;21.90;;;12.97;;
5608;SDS011;2826;51.354;9.588;2022-07-23T02:07:36;14.50;;;10.43;;
5608;SDS011;2826;51.354;9.588;2022-07-23T02:10:03;19.97;;;11.53;;
5608;SDS011;2826;51.354;9.588;2022-07-23T02:12:31;21.50;;;10.80;;
5608;SDS011;2826;51.354;9.588;2022-07-23T02:14:58;17.70;;;11.30;;
5608;SDS011;2826;51.354;9.588;2022-07-23T02:17:25;25.90;;;12.50;;
5608;SDS011;2826;51.354;9.588;2022-07-23T02:19:52;17.90;;;11.80;;
5608;SDS011;2826;51.354;9.588;2022-07-23T02:22:21;30.93;;;12.50;;
5608;SDS011;2826;51.354;9.588;2022-07-23T02:24:48;23.97;;;13.17;;
5608;SDS011;2826;51.354;9.588;2022-07-23T02:27:14;18.37;;;14.47;;
5608;SDS011;2826;51.354;9.588;2022-07-23T02:29:44;20.00;;;12.53;;
5608;SDS011;2826;51.354;9.588;2022-07-23T02:32:13;21.30;;;12.43;;
5608;SDS011;2826;51.354;9.588;2022-07-23T02:34:39;20.70;;;12.97;;
5608;SDS011;2826;51.354;9.588;2022-07-23T02:37:06;27.30;;;13.40;;
5608;SDS011;2826;51.354;9.588;2022-07-23T02:39:34;18.20;;;11.73;;
5608;SDS011;2826;51.354;9.588;2022-07-23T02:42:01;26.07;;;13.33;;
5608;SDS011;2826;51.354;9.588;2022-07-23T02:44:30;19.50;;;12.73;;
5608;SDS011;2826;51.354;9.588;2022-07-23T02:47:00;18.40;;;11.97;;
5608;SDS011;2826;51.354;9.588;2022-07-23T02:49:27;18.87;;;11.40;;
5608;SDS011;2826;51.354;9.588;2022-07-23T02:51:54;20.47;;;12.10;;
5608;SDS011;2826;51.354;9.588;2022-07-23T02:54:21;17.50;;;11.67;;
5608;SDS011;2826;51.354;9.588;2022-07-23T02:56:48;27.20;;;13.23;;
5608;SDS011;2826;51.354;9.588;2022-07-23T02:59:16;19.80;;;11.40;;
5608;SDS011;2826;51.354;9.588;2022-07-23T03:01:43;17.43;;;11.20;;
5608;SDS011;2826;51.354;9.588;2022-07-23T03:04:12;24.50;;;12.50;;
5608;SDS011;2826;51.354;9.588;2022-07-23T03:06:41;20.57;;;12.03;;
5608;SDS011;2826;51.354;9.588;2022-07-23T03:09:08;22.40;;;13.20;;
5608;SDS011;2826;51.354;9.588;2022-07-23T03:11:37;22.20;;;12.27;;
5608;SDS011;2826;51.354;9.588;2022-07-23T03:14:04;20.73;;;12.40;;
5608;SDS011;2826;51.354;9.588;2022-07-23T03:16:31;21.17;;;11.90;;
5608;SDS011;2826;51.354;9.588;2022-07-23T03:18:58;20.33;;;13.20;;
5608;SDS011;2826;51.354;9.588;2022-07-23T03:21:27;21.47;;;12.30;;
5608;SDS011;2826;51.354;9.588;2022-07-23T03:23:54;27.53;;;13.00;;
5608;SDS011;2826;51.354;9.588;2022-07-23T03:26:21;26.70;;;13.50;;
5608;SDS011;2826;51.354;9.588;2022-07-23T03:28:51;20.37;;;12.57;;
5608;SDS011;2826;51.354;9.588;2022-07-23T03:31:18;21.43;;;12.67;;
5608;SDS011;2826;51.354;9.588;2022-07-23T03:33:45;19.53;;;12.27;;
5608;SDS011;2826;51.354;9.588;2022-07-23T03:36:12;29.67;;;13.50;;
5608;SDS011;2826;51.354;9.588;2022-07-23T03:38:42;24.17;;;13.10;;
5608;SDS011;2826;51.354;9.588;2022-07-23T03:41:09;21.87;;;12.47;;
5608;SDS011;2826;51.354;9.588;2022-07-23T03:43:36;25.10;;;12.67;;
5608;SDS011;2826;51.354;9.588;2022-07-23T03:46:04;25.63;;;11.97;;
5608;SDS011;2826;51.354;9.588;2022-07-23T03:48:31;21.60;;;11.83;;
5608;SDS011;2826;51.354;9.588;2022-07-23T03:50:58;20.47;;;11.90;;
5608;SDS011;2826;51.354;9.588;2022-07-23T03:53:25;25.03;;;12.03;;
5608;SDS011;2826;51.354;9.588;2022-07-23T03:55:53;19.40;;;12.20;;
5608;SDS011;2826;51.354;9.588;2022-07-23T03:58:20;19.30;;;11.33;;
5608;SDS011;2826;51.354;9.588;2022-07-23T04:00:47;51.57;;;11.87;;
5608;SDS011;2826;51.354;9.588;2022-07-23T04:03:14;15.13;;;10.90;;
5608;SDS011;2826;51.354;9.588;2022-07-23T04:05:42;18.43;;;10.47;;
5608;SDS011;2826;51.354;9.588;2022-07-23T04:08:12;22.13;;;12.23;;
5608;SDS011;2826;51.354;9.588;2022-07-23T04:10:43;23.97;;;12.13;;
5608;SDS011;2826;51.354;9.588;2022-07-23T04:13:12;27.73;;;11.20;;
5608;SDS011;2826;51.354;9.588;2022-07-23T04:15:38;19.73;;;10.93;;
5608;SDS011;2826;51.354;9.588;2022-07-23T04:18:05;22.10;;;12.57;;
5608;SDS011;2826;51.354;9.588;2022-07-23T04:20:44;16.03;;;11.50;;
5608;SDS011;2826;51.354;9.588;2022-07-23T04:23:11;25.43;;;12.43;;
5608;SDS011;2826;51.354;9.588;2022-07-23T04:25:39;20.73;;;12.13;;
5608;SDS011;2826;51.354;9.588;2022-07-23T04:28:06;21.80;;;11.63;;
5608;SDS011;2826;51.354;9.588;2022-07-23T04:30:35;24.50;;;12.03;;
5608;SDS011;2826;51.354;9.588;2022-07-23T04:33:02;19.40;;;11.70;;
5608;SDS011;2826;51.354;9.588;2022-07-23T04:35:37;21.80;;;11.60;;
5608;SDS011;2826;51.354;9.588;2022-07-23T04:38:12;23.80;;;11.10;;
5608;SDS011;2826;51.354;9.588;2022-07-23T04:40:42;14.47;;;10.83;;
5608;SDS011;2826;51.354;9.588;2022-07-23T04:43:09;18.00;;;10.70;;
5608;SDS011;2826;51.354;9.588;2022-07-23T04:45:44;17.33;;;10.90;;
5608;SDS011;2826;51.354;9.588;2022-07-23T04:48:11;118.77;;;13.00;;
5608;SDS011;2826;51.354;9.588;2022-07-23T04:50:38;23.17;;;11.03;;
5608;SDS011;2826;51.354;9.588;2022-07-23T04:53:14;21.70;;;11.63;;
5608;SDS011;2826;51.354;9.588;2022-07-23T04:55:42;18.43;;;11.83;;
5608;SDS011;2826;51.354;9.588;2022-07-23T04:58:09;21.23;;;11.00;;
5608;SDS011;2826;51.354;9.588;2022-07-23T05:00:36;26.67;;;13.07;;
5608;SDS011;2826;51.354;9.588;2022-07-23T05:03:04;19.03;;;11.37;;
5608;SDS011;2826;51.354;9.588;2022-07-23T05:05:31;17.47;;;12.13;;
5608;SDS011;2826;51.354;9.588;2022-07-23T05:08:06;17.37;;;11.57;;
5608;SDS011;2826;51.354;9.588;2022-07-23T05:10:36;19.90;;;12.20;;
5608;SDS011;2826;51.354;9.588;2022-07-23T05:13:03;16.13;;;11.37;;
5608;SDS011;2826;51.354;9.588;2022-07-23T05:15:29;18.23;;;10.70;;
5608;SDS011;2826;51.354;9.588;2022-07-23T05:17:56;20.30;;;11.80;;
5608;SDS011;2826;51.354;9.588;2022-07-23T05:20:26;14.87;;;11.10;;
5608;SDS011;2826;51.354;9.588;2022-07-23T05:22:52;22.40;;;12.60;;
5608;SDS011;2826;51.354;9.588;2022-07-23T05:25:19;24.90;;;12.50;;
5608;SDS011;2826;51.354;9.588;2022-07-23T05:27:46;17.93;;;12.30;;
5608;SDS011;2826;51.354;9.588;2022-07-23T05:30:13;24.90;;;11.93;;
5608;SDS011;2826;51.354;9.588;2022-07-23T05:32:42;17.30;;;11.43;;
5608;SDS011;2826;51.354;9.588;2022-07-23T05:35:14;22.03;;;11.27;;
5608;SDS011;2826;51.354;9.588;2022-07-23T05:37:50;22.73;;;12.50;;
5608;SDS011;2826;51.354;9.588;2022-07-23T05:40:18;23.17;;;12.00;;
5608;SDS011;2826;51.354;9.588;2022-07-23T05:42:45;18.67;;;12.10;;
5608;SDS011;2826;51.354;9.588;2022-07-23T05:45:12;18.93;;;11.63;;
5608;SDS011;2826;51.354;9.588;2022-07-23T05:47:43;23.93;;;11.90;;
5608;SDS011;2826;51.354;9.588;2022-07-23T05:50:13;21.23;;;10.50;;
5608;SDS011;2826;51.354;9.588;2022-07-23T05:52:58;22.57;;;12.40;;
5608;SDS011;2826;51.354;9.588;2022-07-23T05:55:37;17.00;;;11.17;;
5608;SDS011;2826;51.354;9.588;2022-07-23T05:58:03;15.63;;;11.57;;
5608;SDS011;2826;51.354;9.588;2022-07-23T06:00:31;16.93;;;10.43;;
5608;SDS011;2826;51.354;9.588;2022-07-23T06:02:58;18.50;;;12.30;;
5608;SDS011;2826;51.354;9.588;2022-07-23T06:05:28;29.00;;;12.47;;
5608;SDS011;2826;51.354;9.588;2022-07-23T06:07:57;17.87;;;12.40;;
5608;SDS011;2826;51.354;9.588;2022-07-23T06:10:25;19.53;;;12.97;;
5608;SDS011;2826;51.354;9.588;2022-07-23T06:12:52;24.43;;;14.13;;
5608;SDS011;2826;51.354;9.588;2022-07-23T06:15:19;21.63;;;12.90;;
5608;SDS011;2826;51.354;9.588;2022-07-23T06:17:46;21.90;;;13.40;;
5608;SDS011;2826;51.354;9.588;2022-07-23T06:20:13;20.43;;;13.70;;
5608;SDS011;2826;51.354;9.588;2022-07-23T06:22:41;24.40;;;13.73;;
5608;SDS011;2826;51.354;9.588;2022-07-23T06:25:09;19.67;;;13.67;;
5608;SDS011;2826;51.354;9.588;2022-07-23T06:27:36;20.63;;;13.27;;
5608;SDS011;2826;51.354;9.588;2022-07-23T06:30:03;26.83;;;12.70;;
5608;SDS011;2826;51.354;9.588;2022-07-23T06:32:31;18.27;;;13.00;;
5608;SDS011;2826;51.354;9.588;2022-07-23T06:34:58;25.37;;;12.97;;
5608;SDS011;2826;51.354;9.588;2022-07-23T06:37:26;22.70;;;12.67;;
5608;SDS011;2826;51.354;9.588;2022-07-23T06:39:53;21.70;;;13.60;;
5608;SDS011;2826;51.354;9.588;2022-07-23T06:42:21;22.13;;;12.13;;
5608;SDS011;2826;51.354;9.588;2022-07-23T06:44:55;16.93;;;11.90;;
5608;SDS011;2826;51.354;9.588;2022-07-23T06:47:22;17.40;;;11.90;;
5608;SDS011;2826;51.354;9.588;2022-07-23T06:49:49;17.80;;;9.37;;
5608;SDS011;2826;51.354;9.588;2022-07-23T06:52:16;17.93;;;9.60;;
5608;SDS011;2826;51.354;9.588;2022-07-23T06:54:43;17.40;;;11.33;;
5608;SDS011;2826;51.354;9.588;2022-07-23T06:57:10;19.30;;;10.07;;
5608;SDS011;2826;51.354;9.588;2022-07-23T06:59:38;16.33;;;10.73;;
5608;SDS011;2826;51.354;9.588;2022-07-23T07:02:08;20.43;;;10.67;;
5608;SDS011;2826;51.354;9.588;2022-07-23T07:04:35;14.57;;;10.53;;
5608;SDS011;2826;51.354;9.588;2022-07-23T07:07:03;15.30;;;10.37;;
5608;SDS011;2826;51.354;9.588;2022-07-23T07:09:30;25.03;;;10.00;;
5608;SDS011;2826;51.354;9.588;2022-07-23T07:11:57;18.57;;;9.70;;
5608;SDS011;2826;51.354;9.588;2022-07-23T07:14:24;13.03;;;9.30;;
5608;SDS011;2826;51.354;9.588;2022-07-23T07:16:52;11.70;;;9.40;;
5608;SDS011;2826;51.354;9.588;2022-07-23T07:19:19;14.23;;;9.97;;
5608;SDS011;2826;51.354;9.588;2022-07-23T07:21:48;12.93;;;9.30;;
5608;SDS011;2826;51.354;9.588;2022-07-23T07:24:15;16.77;;;9.10;;
5608;SDS011;2826;51.354;9.588;2022-07-23T07:26:44;12.30;;;8.50;;
5608;SDS011;2826;51.354;9.588;2022-07-23T07:29:11;17.40;;;9.37;;
5608;SDS011;2826;51.354;9.588;2022-07-23T07:31:38;14.07;;;9.13;;
5608;SDS011;2826;51.354;9.588;2022-07-23T07:34:06;13.00;;;9.17;;
5608;SDS011;2826;51.354;9.588;2022-07-23T07:36:34;12.40;;;8.77;;
5608;SDS011;2826;51.354;9.588;2022-07-23T07:39:02;16.80;;;9.73;;
5608;SDS011;2826;51.354;9.588;2022-07-23T07:41:29;16.63;;;9.90;;
5608;SDS011;2826;51.354;9.588;2022-07-23T07:43:56;14.40;;;9.77;;
5608;SDS011;2826;51.354;9.588;2022-07-23T07:46:23;21.37;;;10.20;;
5608;SDS011;2826;51.354;9.588;2022-07-23T07:48:52;14.23;;;9.40;;
5608;SDS011;2826;51.354;9.588;2022-07-23T07:51:23;20.50;;;9.40;;
5608;SDS011;2826;51.354;9.588;2022-07-23T07:53:50;13.40;;;8.77;;
5608;SDS011;2826;51.354;9.588;2022-07-23T07:56:16;13.13;;;8.33;;
5608;SDS011;2826;51.354;9.588;2022-07-23T07:58:43;14.13;;;7.47;;
5608;SDS011;2826;51.354;9.588;2022-07-23T08:01:10;11.77;;;7.03;;
5608;SDS011;2826;51.354;9.588;2022-07-23T08:03:37;9.90;;;5.67;;
5608;SDS011;2826;51.354;9.588;2022-07-23T08:06:04;8.60;;;6.60;;
5608;SDS011;2826;51.354;9.588;2022-07-23T08:08:33;7.47;;;5.60;;
5608;SDS011;2826;51.354;9.588;2022-07-23T08:11:00;7.07;;;4.80;;
5608;SDS011;2826;51.354;9.588;2022-07-23T08:13:26;6.37;;;4.50;;
5608;SDS011;2826;51.354;9.588;2022-07-23T08:15:53;4.20;;;3.60;;
5608;SDS011;2826;51.354;9.588;2022-07-23T08:18:20;6.23;;;3.77;;
5608;SDS011;2826;51.354;9.588;2022-07-23T08:20:47;4.53;;;3.77;;
5608;SDS011;2826;51.354;9.588;2022-07-23T08:23:13;4.57;;;4.00;;
5608;SDS011;2826;51.354;9.588;2022-07-23T08:25:46;7.50;;;3.60;;
5608;SDS011;2826;51.354;9.588;2022-07-23T08:28:13;4.93;;;3.93;;
5608;SDS011;2826;51.354;9.588;2022-07-23T08:30:42;4.50;;;3.43;;
5608;SDS011;2826;51.354;9.588;2022-07-23T08:33:10;8.27;;;3.67;;
5608;SDS011;2826;51.354;9.588;2022-07-23T08:35:40;5.30;;;3.70;;
5608;SDS011;2826;51.354;9.588;2022-07-23T08:38:09;7.93;;;3.63;;
5608;SDS011;2826;51.354;9.588;2022-07-23T08:40:37;5.33;;;3.67;;
5608;SDS011;2826;51.354;9.588;2022-07-23T08:43:08;4.00;;;2.90;;
5608;SDS011;2826;51.354;9.588;2022-07-23T08:45:37;4.27;;;3.20;;
5608;SDS011;2826;51.354;9.588;2022-07-23T08:48:07;9.83;;;3.43;;
5608;SDS011;2826;51.354;9.588;2022-07-23T08:50:35;6.90;;;4.17;;
5608;SDS011;2826;51.354;9.588;2022-07-23T08:53:05;7.87;;;3.27;;
5608;SDS011;2826;51.354;9.588;2022-07-23T08:55:33;8.87;;;4.40;;
5608;SDS011;2826;51.354;9.588;2022-07-23T08:57:59;8.23;;;5.27;;
5608;SDS011;2826;51.354;9.588;2022-07-23T09:00:28;6.40;;;5.23;;
5608;SDS011;2826;51.354;9.588;2022-07-23T09:02:55;7.93;;;5.00;;
5608;SDS011;2826;51.354;9.588;2022-07-23T09:05:22;7.27;;;5.40;;
5608;SDS011;2826;51.354;9.588;2022-07-23T09:10:48;8.20;;;5.30;;
5608;SDS011;2826;51.354;9.588;2022-07-23T09:13:22;8.63;;;5.43;;
5608;SDS011;2826;51.354;9.588;2022-07-23T09:15:59;7.53;;;5.10;;
5608;SDS011;2826;51.354;9.588;2022-07-23T09:18:28;5.70;;;4.83;;
5608;SDS011;2826;51.354;9.588;2022-07-23T09:21:06;7.37;;;5.30;;
5608;SDS011;2826;51.354;9.588;2022-07-23T09:23:49;10.40;;;5.60;;
5608;SDS011;2826;51.354;9.588;2022-07-23T09:26:19;7.50;;;5.57;;
5608;SDS011;2826;51.354;9.588;2022-07-23T09:28:52;10.20;;;5.37;;
5608;SDS011;2826;51.354;9.588;2022-07-23T09:31:22;5.47;;;4.67;;
5608;SDS011;2826;51.354;9.588;2022-07-23T09:33:49;5.60;;;4.03;;
5608;SDS011;2826;51.354;9.588;2022-07-23T09:36:18;7.93;;;4.63;;
5608;SDS011;2826;51.354;9.588;2022-07-23T09:38:54;6.63;;;5.23;;
5608;SDS011;2826;51.354;9.588;2022-07-23T09:41:20;7.63;;;4.57;;
5608;SDS011;2826;51.354;9.588;2022-07-23T09:43:54;9.40;;;4.97;;
5608;SDS011;2826;51.354;9.588;2022-07-23T09:46:23;7.03;;;4.70;;
5608;SDS011;2826;51.354;9.588;2022-07-23T09:48:52;7.70;;;4.53;;
5608;SDS011;2826;51.354;9.588;2022-07-23T09:51:21;7.43;;;5.17;;
5608;SDS011;2826;51.354;9.588;2022-07-23T09:53:52;8.43;;;3.60;;
5608;SDS011;2826;51.354;9.588;2022-07-23T09:56:19;8.60;;;4.30;;
5608;SDS011;2826;51.354;9.588;2022-07-23T09:58:46;7.83;;;4.00;;
5608;SDS011;2826;51.354;9.588;2022-07-23T10:01:16;7.97;;;4.10;;
5608;SDS011;2826;51.354;9.588;2022-07-23T10:03:45;6.33;;;4.40;;
5608;SDS011;2826;51.354;9.588;2022-07-23T10:06:44;8.00;;;4.43;;
5608;SDS011;2826;51.354;9.588;2022-07-23T10:09:31;6.47;;;4.90;;
5608;SDS011;2826;51.354;9.588;2022-07-23T10:12:18;8.03;;;4.57;;
5608;SDS011;2826;51.354;9.588;2022-07-23T10:14:58;6.73;;;4.03;;
5608;SDS011;2826;51.354;9.588;2022-07-23T10:17:25;10.43;;;4.90;;
5608;SDS011;2826;51.354;9.588;2022-07-23T10:19:55;7.20;;;3.87;;
5608;SDS011;2826;51.354;9.588;2022-07-23T10:22:23;5.53;;;3.73;;
5608;SDS011;2826;51.354;9.588;2022-07-23T10:24:58;6.37;;;3.63;;
5608;SDS011;2826;51.354;9.588;2022-07-23T10:27:37;5.30;;;3.30;;
5608;SDS011;2826;51.354;9.588;2022-07-23T10:30:11;5.03;;;3.40;;
5608;SDS011;2826;51.354;9.588;2022-07-23T10:32:45;5.40;;;3.30;;
5608;SDS011;2826;51.354;9.588;2022-07-23T10:35:26;7.40;;;3.23;;
5608;SDS011;2826;51.354;9.588;2022-07-23T10:38:01;4.47;;;3.00;;
5608;SDS011;2826;51.354;9.588;2022-07-23T10:40:31;7.27;;;2.63;;
5608;SDS011;2826;51.354;9.588;2022-07-23T10:42:59;4.93;;;3.23;;
5608;SDS011;2826;51.354;9.588;2022-07-23T10:45:28;3.47;;;2.87;;
5608;SDS011;2826;51.354;9.588;2022-07-23T10:48:11;3.77;;;2.97;;
5608;SDS011;2826;51.354;9.588;2022-07-23T10:50:41;4.63;;;2.73;;
5608;SDS011;2826;51.354;9.588;2022-07-23T10:53:13;3.37;;;2.60;;
5608;SDS011;2826;51.354;9.588;2022-07-23T10:55:50;2.80;;;2.53;;
5608;SDS011;2826;51.354;9.588;2022-07-23T10:58:19;3.50;;;2.83;;
5608;SDS011;2826;51.354;9.588;2022-07-23T11:00:47;6.33;;;2.83;;
5608;SDS011;2826;51.354;9.588;2022-07-23T11:03:28;2.90;;;2.60;;
5608;SDS011;2826;51.354;9.588;2022-07-23T11:06:03;2.93;;;2.60;;
5608;SDS011;2826;51.354;9.588;2022-07-23T11:08:31;5.00;;;2.87;;
5608;SDS011;2826;51.354;9.588;2022-07-23T11:11:08;7.73;;;3.07;;
5608;SDS011;2826;51.354;9.588;2022-07-23T11:13:37;4.77;;;2.80;;
5608;SDS011;2826;51.354;9.588;2022-07-23T11:16:08;2.90;;;2.67;;
5608;SDS011;2826;51.354;9.588;2022-07-23T11:18:52;11.70;;;3.40;;
5608;SDS011;2826;51.354;9.588;2022-07-23T11:24:22;5.30;;;2.83;;
5608;SDS011;2826;51.354;9.588;2022-07-23T11:26:52;4.20;;;3.17;;
5608;SDS011;2826;51.354;9.588;2022-07-23T11:32:19;4.33;;;3.17;;
5608;SDS011;2826;51.354;9.588;2022-07-23T11:34:50;4.87;;;3.40;;
5608;SDS011;2826;51.354;9.588;2022-07-23T11:40:11;3.97;;;3.40;;
5608;SDS011;2826;51.354;9.588;2022-07-23T11:42:40;7.40;;;3.70;;
5608;SDS011;2826;51.354;9.588;2022-07-23T11:45:17;3.53;;;3.10;;
5608;SDS011;2826;51.354;9.588;2022-07-23T11:47:44;5.47;;;3.17;;
5608;SDS011;2826;51.354;9.588;2022-07-23T11:50:11;5.83;;;3.23;;
5608;SDS011;2826;51.354;9.588;2022-07-23T11:52:38;6.93;;;3.70;;
5608;SDS011;2826;51.354;9.588;2022-07-23T11:55:08;10.10;;;3.53;;
5608;SDS011;2826;51.354;9.588;2022-07-23T11:57:37;7.20;;;3.40;;
5608;SDS011;2826;51.354;9.588;2022-07-23T12:00:06;3.70;;;3.00;;
5608;SDS011;2826;51.354;9.588;2022-07-23T12:02:39;6.47;;;3.57;;
5608;SDS011;2826;51.354;9.588;2022-07-23T12:05:07;3.20;;;2.90;;
5608;SDS011;2826;51.354;9.588;2022-07-23T12:07:38;9.93;;;4.10;;
5608;SDS011;2826;51.354;9.588;2022-07-23T12:10:12;9.50;;;3.73;;
5608;SDS011;2826;51.354;9.588;2022-07-23T12:12:40;5.57;;;2.93;;
5608;SDS011;2826;51.354;9.588;2022-07-23T12:15:08;4.10;;;2.90;;
5608;SDS011;2826;51.354;9.588;2022-07-23T12:17:37;5.90;;;3.10;;
5608;SDS011;2826;51.354;9.588;2022-07-23T12:20:06;5.07;;;3.27;;
5608;SDS011;2826;51.354;9.588;2022-07-23T12:22:35;3.00;;;2.70;;
5608;SDS011;2826;51.354;9.588;2022-07-23T12:25:04;3.00;;;2.70;;
5608;SDS011;2826;51.354;9.588;2022-07-23T12:27:35;4.67;;;2.70;;
5608;SDS011;2826;51.354;9.588;2022-07-23T12:30:15;3.30;;;3.00;;
5608;SDS011;2826;51.354;9.588;2022-07-23T12:32:43;5.00;;;3.30;;
5608;SDS011;2826;51.354;9.588;2022-07-23T12:35:11;4.47;;;2.87;;
5608;SDS011;2826;51.354;9.588;2022-07-23T12:37:38;6.07;;;3.37;;
5608;SDS011;2826;51.354;9.588;2022-07-23T12:40:19;4.03;;;3.63;;
5608;SDS011;2826;51.354;9.588;2022-07-23T12:42:53;5.00;;;2.90;;
5608;SDS011;2826;51.354;9.588;2022-07-23T12:45:23;9.23;;;3.20;;
5608;SDS011;2826;51.354;9.588;2022-07-23T12:47:50;8.63;;;3.63;;
5608;SDS011;2826;51.354;9.588;2022-07-23T12:50:37;4.90;;;3.50;;
5608;SDS011;2826;51.354;9.588;2022-07-23T12:53:07;8.33;;;4.07;;
5608;SDS011;2826;51.354;9.588;2022-07-23T12:55:35;5.07;;;3.27;;
5608;SDS011;2826;51.354;9.588;2022-07-23T12:58:05;6.20;;;3.70;;
5608;SDS011;2826;51.354;9.588;2022-07-23T13:00:48;7.67;;;3.70;;
5608;SDS011;2826;51.354;9.588;2022-07-23T13:03:28;3.90;;;3.27;;
5608;SDS011;2826;51.354;9.588;2022-07-23T13:05:57;10.27;;;3.27;;
5608;SDS011;2826;51.354;9.588;2022-07-23T13:08:26;7.03;;;3.80;;
5608;SDS011;2826;51.354;9.588;2022-07-23T13:10:54;5.43;;;3.63;;
5608;SDS011;2826;51.354;9.588;2022-07-23T13:13:23;5.27;;;3.53;;
5608;SDS011;2826;51.354;9.588;2022-07-23T13:15:51;6.40;;;3.77;;
5608;SDS011;2826;51.354;9.588;2022-07-23T13:18:18;4.60;;;3.27;;
5608;SDS011;2826;51.354;9.588;2022-07-23T13:20:46;7.27;;;3.63;;
5608;SDS011;2826;51.354;9.588;2022-07-23T13:23:14;7.10;;;3.50;;
5608;SDS011;2826;51.354;9.588;2022-07-23T13:25:41;4.53;;;3.50;;
5608;SDS011;2826;51.354;9.588;2022-07-23T13:28:09;5.83;;;3.77;;
5608;SDS011;2826;51.354;9.588;2022-07-23T13:30:37;9.10;;;3.90;;
5608;SDS011;2826;51.354;9.588;2022-07-23T13:33:05;10.90;;;3.50;;
5608;SDS011;2826;51.354;9.588;2022-07-23T13:35:32;6.33;;;4.03;;
5608;SDS011;2826;51.354;9.588;2022-07-23T13:37:59;8.57;;;3.80;;
5608;SDS011;2826;51.354;9.588;2022-07-23T13:40:26;6.20;;;3.73;;
5608;SDS011;2826;51.354;9.588;2022-07-23T13:42:53;5.50;;;3.87;;
5608;SDS011;2826;51.354;9.588;2022-07-23T13:45:20;4.43;;;4.03;;
5608;SDS011;2826;51.354;9.588;2022-07-23T13:47:48;9.97;;;4.60;;
5608;SDS011;2826;51.354;9.588;2022-07-23T13:50:15;4.03;;;3.50;;
5608;SDS011;2826;51.354;9.588;2022-07-23T13:52:42;8.20;;;3.83;;
5608;SDS011;2826;51.354;9.588;2022-07-23T13:55:09;5.17;;;3.80;;
5608;SDS011;2826;51.354;9.588;2022-07-23T13:57:36;9.30;;;3.70;;
5608;SDS011;2826;51.354;9.588;2022-07-23T14:00:04;6.37;;;3.83;;
5608;SDS011;2826;51.354;9.588;2022-07-23T14:02:35;4.20;;;3.90;;
5608;SDS011;2826;51.354;9.588;2022-07-23T14:05:04;5.00;;;3.67;;
5608;SDS011;2826;51.354;9.588;2022-07-23T14:07:31;7.03;;;3.60;;
5608;SDS011;2826;51.354;9.588;2022-07-23T14:09:59;8.00;;;3.90;;
5608;SDS011;2826;51.354;9.588;2022-07-23T14:12:26;5.33;;;4.50;;
5608;SDS011;2826;51.354;9.588;2022-07-23T14:14:52;4.90;;;3.80;;
5608;SDS011;2826;51.354;9.588;2022-07-23T14:17:19;4.00;;;3.33;;
5608;SDS011;2826;51.354;9.588;2022-07-23T14:19:46;5.13;;;3.30;;
5608;SDS011;2826;51.354;9.588;2022-07-23T14:22:15;5.03;;;3.80;;
5608;SDS011;2826;51.354;9.588;2022-07-23T14:24:42;3.47;;;3.00;;
5608;SDS011;2826;51.354;9.588;2022-07-23T14:27:09;4.13;;;3.60;;
5608;SDS011;2826;51.354;9.588;2022-07-23T14:29:35;6.17;;;3.80;;
5608;SDS011;2826;51.354;9.588;2022-07-23T14:32:03;4.20;;;3.23;;
5608;SDS011;2826;51.354;9.588;2022-07-23T14:34:30;8.00;;;3.03;;
5608;SDS011;2826;51.354;9.588;2022-07-23T14:36:57;5.90;;;3.83;;
5608;SDS011;2826;51.354;9.588;2022-07-23T14:39:25;3.27;;;3.00;;
5608;SDS011;2826;51.354;9.588;2022-07-23T14:41:52;4.50;;;3.03;;
5608;SDS011;2826;51.354;9.588;2022-07-23T14:44:19;3.80;;;3.07;;
5608;SDS011;2826;51.354;9.588;2022-07-23T14:46:46;6.90;;;3.03;;
5608;SDS011;2826;51.354;9.588;2022-07-23T14:49:13;8.20;;;3.20;;
5608;SDS011;2826;51.354;9.588;2022-07-23T14:51:40;3.23;;;2.90;;
5608;SDS011;2826;51.354;9.588;2022-07-23T14:54:07;2.80;;;2.60;;
5608;SDS011;2826;51.354;9.588;2022-07-23T14:56:36;7.90;;;3.50;;
5608;SDS011;2826;51.354;9.588;2022-07-23T14:59:03;9.10;;;3.60;;
5608;SDS011;2826;51.354;9.588;2022-07-23T15:01:29;6.07;;;3.37;;
5608;SDS011;2826;51.354;9.588;2022-07-23T15:03:56;3.33;;;2.80;;
5608;SDS011;2826;51.354;9.588;2022-07-23T15:06:23;6.23;;;2.90;;
5608;SDS011;2826;51.354;9.588;2022-07-23T15:08:50;3.00;;;2.80;;
5608;SDS011;2826;51.354;9.588;2022-07-23T15:11:17;3.30;;;3.00;;
5608;SDS011;2826;51.354;9.588;2022-07-23T15:13:45;5.27;;;3.30;;
5608;SDS011;2826;51.354;9.588;2022-07-23T15:16:12;7.63;;;2.97;;
5608;SDS011;2826;51.354;9.588;2022-07-23T15:18:39;6.20;;;2.83;;
5608;SDS011;2826;51.354;9.588;2022-07-23T15:21:06;4.70;;;2.97;;
5608;SDS011;2826;51.354;9.588;2022-07-23T15:23:32;5.00;;;2.83;;
5608;SDS011;2826;51.354;9.588;2022-07-23T15:26:00;4.50;;;2.67;;